createdAt,value
2023-05-06T00:00:25.654Z,5.60
2023-05-06T00:03:12.068Z,6.40
2023-05-06T00:05:39.744Z,4.80
2023-05-06T00:08:07.254Z,5.80
2023-05-06T00:10:34.962Z,4.50
2023-05-06T00:13:02.613Z,6.20
2023-05-06T00:15:32.011Z,6.30
2023-05-06T00:18:00.799Z,7.90
2023-05-06T00:20:29.357Z,5.50
2023-05-06T00:22:56.908Z,7.90
2023-05-06T00:25:24.699Z,6.20
2023-05-06T00:27:53.460Z,7.40
2023-05-06T00:30:21.032Z,6.20
2023-05-06T00:32:48.639Z,7.10
2023-05-06T00:35:16.264Z,6.00
2023-05-06T00:37:46.776Z,5.70
2023-05-06T00:40:14.398Z,5.50
2023-05-06T00:42:41.958Z,7.60
2023-05-06T00:45:10.283Z,5.50
2023-05-06T00:47:38.072Z,6.80
2023-05-06T00:50:06.391Z,6.10
2023-05-06T00:52:34.173Z,5.40
2023-05-06T00:55:01.811Z,8.60
2023-05-06T00:57:29.421Z,4.80
2023-05-06T00:59:57.029Z,5.70
2023-05-06T01:02:28.482Z,6.00
2023-05-06T01:05:04.716Z,5.90
2023-05-06T01:07:50.680Z,5.50
2023-05-06T01:10:49.804Z,5.50
2023-05-06T01:13:24.971Z,5.80
2023-05-06T01:15:59.220Z,5.70
2023-05-06T01:18:27.435Z,6.50
2023-05-06T01:20:55.391Z,5.70
2023-05-06T01:23:22.961Z,6.60
2023-05-06T01:25:50.674Z,5.20
2023-05-06T01:28:18.378Z,6.60
2023-05-06T01:31:00.952Z,5.30
2023-05-06T01:33:48.873Z,6.20
2023-05-06T01:36:26.443Z,6.30
2023-05-06T01:39:09.129Z,6.30
2023-05-06T01:41:40.200Z,6.60
2023-05-06T01:44:08.817Z,5.50
2023-05-06T01:46:36.503Z,7.10
2023-05-06T01:49:06.163Z,7.50
2023-05-06T01:51:34.031Z,6.30
2023-05-06T01:54:02.399Z,6.50
2023-05-06T01:56:30.001Z,6.90
2023-05-06T01:58:59.249Z,7.90
2023-05-06T02:01:27.304Z,7.60
2023-05-06T02:03:55.036Z,6.80
2023-05-06T02:06:22.739Z,7.40
2023-05-06T02:08:50.283Z,6.30
2023-05-06T02:11:17.931Z,8.50
2023-05-06T02:13:45.493Z,7.40
2023-05-06T02:16:13.061Z,6.90
2023-05-06T02:18:40.591Z,5.00
2023-05-06T02:21:09.986Z,5.80
2023-05-06T02:23:37.636Z,6.70
2023-05-06T02:26:05.254Z,6.80
2023-05-06T02:28:32.790Z,6.80
2023-05-06T02:31:00.354Z,7.70
2023-05-06T02:33:28.041Z,6.00
2023-05-06T02:35:55.601Z,7.10
2023-05-06T02:38:23.891Z,6.20
2023-05-06T02:40:51.409Z,7.80
2023-05-06T02:43:19.081Z,7.30
2023-05-06T02:45:46.641Z,7.10
2023-05-06T02:48:14.181Z,7.30
2023-05-06T02:50:41.765Z,6.60
2023-05-06T02:53:09.330Z,5.40
2023-05-06T02:55:36.893Z,5.10
2023-05-06T02:58:04.753Z,8.50
2023-05-06T03:00:32.260Z,6.30
2023-05-06T03:02:59.951Z,5.40
2023-05-06T03:05:27.528Z,6.10
2023-05-06T03:07:55.057Z,5.50
2023-05-06T03:10:22.590Z,6.90
2023-05-06T03:12:50.188Z,7.90
2023-05-06T03:15:17.763Z,8.50
2023-05-06T03:17:47.413Z,6.10
2023-05-06T03:20:15.193Z,6.20
2023-05-06T03:22:42.743Z,5.90
2023-05-06T03:25:10.489Z,6.70
2023-05-06T03:27:38.164Z,6.30
2023-05-06T03:30:06.192Z,6.50
2023-05-06T03:32:34.085Z,7.20
2023-05-06T03:35:01.713Z,7.10
2023-05-06T03:37:29.247Z,7.10
2023-05-06T03:39:56.768Z,6.90
2023-05-06T03:42:24.384Z,6.60
2023-05-06T03:44:51.933Z,5.90
2023-05-06T03:47:19.777Z,7.30
2023-05-06T03:49:47.309Z,5.50
2023-05-06T03:52:14.909Z,6.60
2023-05-06T03:54:42.491Z,5.60
2023-05-06T03:57:10.000Z,6.60
2023-05-06T03:59:37.527Z,6.20
2023-05-06T04:02:05.088Z,6.00
2023-05-06T04:04:32.679Z,5.50
2023-05-06T04:07:00.611Z,5.80
2023-05-06T04:09:28.134Z,5.20
2023-05-06T04:11:55.666Z,6.10
2023-05-06T04:14:23.180Z,7.40
2023-05-06T04:16:50.806Z,5.60
2023-05-06T04:19:18.338Z,6.20
2023-05-06T04:21:45.897Z,5.50
2023-05-06T04:24:13.421Z,4.90
2023-05-06T04:26:40.944Z,6.80
2023-05-06T04:29:09.076Z,6.40
2023-05-06T04:31:36.661Z,5.30
2023-05-06T04:34:04.263Z,5.80
2023-05-06T04:36:31.856Z,4.50
2023-05-06T04:38:59.377Z,6.10
2023-05-06T04:41:26.937Z,6.30
2023-05-06T04:43:54.465Z,7.00
2023-05-06T04:46:22.115Z,6.40
2023-05-06T04:48:49.726Z,6.40
2023-05-06T04:51:17.382Z,6.70
2023-05-06T04:53:44.933Z,5.90
2023-05-06T04:56:12.470Z,5.50
2023-05-06T04:58:39.987Z,4.60
2023-05-06T05:01:09.221Z,5.60
2023-05-06T05:03:36.940Z,4.60
2023-05-06T05:06:04.619Z,5.50
2023-05-06T05:08:32.130Z,5.00
2023-05-06T05:10:59.677Z,5.40
2023-05-06T05:13:27.231Z,6.00
2023-05-06T05:15:55.105Z,6.70
2023-05-06T05:18:22.917Z,8.10
2023-05-06T05:20:50.443Z,8.40
2023-05-06T05:23:17.952Z,5.60
2023-05-06T05:25:45.478Z,5.80
2023-05-06T05:28:13.081Z,7.00
2023-05-06T05:30:40.638Z,5.60
2023-05-06T05:33:08.255Z,5.30
2023-05-06T05:35:35.925Z,5.70
2023-05-06T05:38:03.444Z,4.30
2023-05-06T05:40:30.971Z,6.30
2023-05-06T05:42:58.973Z,6.20
2023-05-06T05:45:26.526Z,5.80
2023-05-06T05:47:54.198Z,5.30
2023-05-06T05:50:21.964Z,6.20
2023-05-06T05:52:49.492Z,4.70
2023-05-06T05:55:17.068Z,5.90
2023-05-06T05:57:44.618Z,7.00
2023-05-06T06:00:13.570Z,6.30
2023-05-06T06:02:41.475Z,5.80
2023-05-06T06:05:09.384Z,6.60
2023-05-06T06:07:37.549Z,4.60
2023-05-06T06:10:05.958Z,5.80
2023-05-06T06:12:33.527Z,6.80
2023-05-06T06:15:01.057Z,6.10
2023-05-06T06:17:28.663Z,6.30
2023-05-06T06:19:58.446Z,6.10
2023-05-06T06:22:25.966Z,6.90
2023-05-06T06:24:53.642Z,7.20
2023-05-06T06:27:21.189Z,6.30
2023-05-06T06:29:48.773Z,5.40
2023-05-06T06:32:16.619Z,6.00
2023-05-06T06:34:44.125Z,5.50
2023-05-06T06:37:12.103Z,6.80
2023-05-06T06:39:39.640Z,6.60
2023-05-06T06:42:07.188Z,7.00
2023-05-06T06:44:36.057Z,6.90
2023-05-06T06:47:03.648Z,6.00
2023-05-06T06:49:31.420Z,7.60
2023-05-06T06:51:58.931Z,6.90
2023-05-06T06:54:26.520Z,7.20
2023-05-06T06:56:54.948Z,5.60
2023-05-06T06:59:22.516Z,6.20
2023-05-06T07:01:50.793Z,7.20
2023-05-06T07:04:18.529Z,6.40
2023-05-06T07:06:46.185Z,6.00
2023-05-06T07:09:13.709Z,6.90
2023-05-06T07:11:41.314Z,6.60
2023-05-06T07:14:08.846Z,8.30
2023-05-06T07:16:36.457Z,6.00
2023-05-06T07:19:03.992Z,5.70
2023-05-06T07:21:31.547Z,4.40
2023-05-06T07:23:59.410Z,6.50
2023-05-06T07:26:27.033Z,6.20
2023-05-06T07:28:54.674Z,5.40
2023-05-06T07:31:22.223Z,6.40
2023-05-06T07:33:49.984Z,4.90
2023-05-06T07:36:17.570Z,6.00
2023-05-06T07:38:45.094Z,7.70
2023-05-06T07:41:12.647Z,5.70
2023-05-06T07:43:40.159Z,5.80
2023-05-06T07:46:07.951Z,11.30
2023-05-06T07:48:35.631Z,7.90
2023-05-06T07:51:03.837Z,9.00
2023-05-06T07:53:31.363Z,6.50
2023-05-06T07:55:58.989Z,6.90
2023-05-06T07:58:26.520Z,8.20
2023-05-06T08:00:54.249Z,9.20
2023-05-06T08:03:21.961Z,6.40
2023-05-06T08:05:53.235Z,7.10
2023-05-06T08:08:22.170Z,8.10
2023-05-06T08:10:49.699Z,6.80
2023-05-06T08:13:17.262Z,7.10
2023-05-06T08:15:44.969Z,6.50
2023-05-06T08:18:21.475Z,6.40
2023-05-06T08:20:50.657Z,5.20
2023-05-06T08:23:18.316Z,5.60
2023-05-06T08:25:45.912Z,5.70
2023-05-06T08:28:13.491Z,5.90
2023-05-06T08:30:41.006Z,9.60
2023-05-06T08:33:08.583Z,7.90
2023-05-06T08:35:36.167Z,7.50
2023-05-06T08:38:03.719Z,5.40
2023-05-06T08:40:31.482Z,5.70
2023-05-06T08:42:59.988Z,7.70
2023-05-06T08:45:29.499Z,6.40
2023-05-06T08:47:57.276Z,7.60
2023-05-06T08:50:25.608Z,8.00
2023-05-06T08:52:53.210Z,6.80
2023-05-06T08:55:22.333Z,6.90
2023-05-06T08:57:52.592Z,7.20
2023-05-06T09:00:20.280Z,7.00
2023-05-06T09:02:47.970Z,6.60
2023-05-06T09:05:15.590Z,7.10
2023-05-06T09:07:43.129Z,7.40
2023-05-06T09:10:14.988Z,6.40
2023-05-06T09:12:42.572Z,5.20
2023-05-06T09:15:11.165Z,5.60
2023-05-06T09:17:39.042Z,7.10
2023-05-06T09:20:07.245Z,5.50
2023-05-06T09:22:38.553Z,5.70
2023-05-06T09:25:07.065Z,5.90
2023-05-06T09:27:35.572Z,4.50
2023-05-06T09:30:06.206Z,4.90
2023-05-06T09:32:35.735Z,5.60
2023-05-06T09:35:05.540Z,4.80
2023-05-06T09:37:33.129Z,6.80
2023-05-06T09:40:00.883Z,5.70
2023-05-06T09:42:29.666Z,8.70
2023-05-06T09:45:01.540Z,6.40
2023-05-06T09:47:33.980Z,7.80
2023-05-06T09:50:03.524Z,5.60
2023-05-06T09:54:59.691Z,7.30
2023-05-06T09:57:28.831Z,6.30
2023-05-06T09:59:58.140Z,6.00
2023-05-06T10:02:27.296Z,7.40
2023-05-06T10:04:56.720Z,6.80
2023-05-06T10:07:25.623Z,8.60
2023-05-06T10:09:54.551Z,7.30
2023-05-06T10:12:22.478Z,10.40
2023-05-06T10:21:49.661Z,18.60
2023-05-06T10:26:46.071Z,11.00
2023-05-06T10:29:13.778Z,12.50
2023-05-06T10:31:48.149Z,14.40
2023-05-06T10:34:19.370Z,12.20
2023-05-06T10:36:48.751Z,11.00
2023-05-06T10:39:16.948Z,8.70
2023-05-06T10:41:44.664Z,10.40
2023-05-06T10:44:12.299Z,10.80
2023-05-06T10:47:00.130Z,12.20
2023-05-06T10:49:27.789Z,12.10
2023-05-06T10:52:15.488Z,10.20
2023-05-06T10:54:51.159Z,12.30
2023-05-06T10:57:19.369Z,12.40
2023-05-06T10:59:47.496Z,9.50
2023-05-06T11:02:19.635Z,10.20
2023-05-06T11:04:51.760Z,13.00
2023-05-06T11:07:23.983Z,11.40
2023-05-06T11:09:59.972Z,9.80
2023-05-06T11:15:38.130Z,10.90
2023-05-06T11:18:24.199Z,13.20
2023-05-06T11:21:11.809Z,14.30
2023-05-06T11:23:42.271Z,11.70
2023-05-06T11:26:11.198Z,13.50
2023-05-06T11:28:39.683Z,12.10
2023-05-06T11:31:08.213Z,13.10
2023-05-06T11:33:37.229Z,8.00
2023-05-06T11:36:05.442Z,14.10
2023-05-06T11:38:50.544Z,17.40
2023-05-06T11:41:19.218Z,16.60
2023-05-06T11:43:47.939Z,9.90
2023-05-06T11:46:15.858Z,13.80
2023-05-06T11:48:43.707Z,16.20
2023-05-06T11:51:11.275Z,15.20
2023-05-06T11:53:38.829Z,13.50
2023-05-06T11:56:06.920Z,12.30
2023-05-06T11:58:34.606Z,16.40
2023-05-06T12:01:04.297Z,15.10
2023-05-06T12:03:33.190Z,19.30
2023-05-06T12:06:01.409Z,15.60
2023-05-06T12:08:34.385Z,18.10
2023-05-06T12:11:08.035Z,17.10
2023-05-06T12:13:40.178Z,16.10
2023-05-06T12:16:08.727Z,13.40
2023-05-06T12:18:37.206Z,19.10
2023-05-06T12:21:04.962Z,14.50
2023-05-06T12:23:32.587Z,15.10
2023-05-06T12:26:05.694Z,17.70
2023-05-06T12:28:35.359Z,16.50
2023-05-06T12:31:22.926Z,20.80
2023-05-06T12:33:50.787Z,20.10
2023-05-06T12:36:19.006Z,19.70
2023-05-06T12:38:54.700Z,20.00
2023-05-06T12:41:34.162Z,12.70
2023-05-06T12:44:01.759Z,18.00
2023-05-06T12:46:29.426Z,11.70
2023-05-06T12:49:01.116Z,11.40
2023-05-06T12:51:29.662Z,10.00
2023-05-06T12:53:57.183Z,13.30
2023-05-06T12:56:25.000Z,31.40
2023-05-06T12:59:02.813Z,17.50
2023-05-06T13:01:30.395Z,18.30
2023-05-06T13:03:57.972Z,17.00
2023-05-06T13:06:25.532Z,18.00
2023-05-06T13:08:53.068Z,18.60
2023-05-06T13:11:20.753Z,15.80
2023-05-06T13:13:48.301Z,16.30
2023-05-06T13:16:16.072Z,15.30
2023-05-06T13:18:43.687Z,11.20
2023-05-06T13:21:11.213Z,18.40
2023-05-06T13:23:38.734Z,18.50
2023-05-06T13:26:06.446Z,17.50
2023-05-06T13:28:34.244Z,13.90
2023-05-06T13:31:01.822Z,16.10
2023-05-06T13:33:29.443Z,15.00
2023-05-06T13:35:57.516Z,20.60
2023-05-06T13:38:25.090Z,16.40
2023-05-06T13:40:54.112Z,18.90
2023-05-06T13:43:22.663Z,17.00
2023-05-06T13:45:50.423Z,14.40
2023-05-06T13:48:18.117Z,12.30
2023-05-06T13:50:46.428Z,14.60
2023-05-06T13:53:16.745Z,21.20
2023-05-06T13:55:44.374Z,16.50
2023-05-06T13:58:12.042Z,19.00
2023-05-06T14:00:39.567Z,16.10
2023-05-06T14:03:07.158Z,20.90
2023-05-06T14:05:35.480Z,19.90
2023-05-06T14:08:03.409Z,17.30
2023-05-06T14:10:30.997Z,21.10
2023-05-06T14:12:58.578Z,22.30
2023-05-06T14:15:26.124Z,24.70
2023-05-06T14:17:53.696Z,22.10
2023-05-06T14:20:21.388Z,20.00
2023-05-06T14:22:48.880Z,21.60
2023-05-06T14:25:16.473Z,23.70
2023-05-06T14:27:44.225Z,16.90
2023-05-06T14:30:12.234Z,18.60
2023-05-06T14:32:39.763Z,18.90
2023-05-06T14:35:08.242Z,18.40
2023-05-06T14:37:35.960Z,20.60
2023-05-06T14:40:05.484Z,17.10
2023-05-06T14:42:32.991Z,17.60
2023-05-06T14:45:00.529Z,20.40
2023-05-06T14:47:28.067Z,19.80
2023-05-06T14:49:55.628Z,24.60
2023-05-06T14:52:23.161Z,19.10
2023-05-06T14:54:50.734Z,22.30
2023-05-06T14:57:18.304Z,18.70
2023-05-06T14:59:45.842Z,20.60
2023-05-06T15:02:13.360Z,17.60
2023-05-06T15:04:40.935Z,20.30
2023-05-06T15:07:08.444Z,17.70
2023-05-06T15:09:35.973Z,18.30
2023-05-06T15:12:03.738Z,21.20
2023-05-06T15:14:31.249Z,20.20
2023-05-06T15:16:58.902Z,18.80
2023-05-06T15:19:26.570Z,17.50
2023-05-06T15:21:54.068Z,21.60
2023-05-06T15:24:21.750Z,14.00
2023-05-06T15:26:49.501Z,19.80
2023-05-06T15:29:17.086Z,15.90
2023-05-06T15:31:45.084Z,17.00
2023-05-06T15:34:13.544Z,19.10
2023-05-06T15:36:41.520Z,16.60
2023-05-06T15:39:09.278Z,15.60
2023-05-06T15:41:38.290Z,19.70
2023-05-06T15:44:06.537Z,19.90
2023-05-06T15:46:34.394Z,26.00
2023-05-06T15:49:29.576Z,21.40
2023-05-06T15:51:49.517Z,25.30
2023-05-06T15:54:17.052Z,23.40
2023-05-06T15:56:45.587Z,19.80
2023-05-06T15:59:13.364Z,22.80
2023-05-06T16:02:24.467Z,25.30
2023-05-06T16:04:29.862Z,22.70
2023-05-06T16:06:57.637Z,27.70
2023-05-06T16:09:25.225Z,29.10
2023-05-06T16:11:52.753Z,27.30
2023-05-06T16:14:20.764Z,26.10
2023-05-06T16:16:48.362Z,24.00
2023-05-06T16:19:15.905Z,24.30
2023-05-06T16:21:43.418Z,28.10
2023-05-06T16:24:10.981Z,19.50
2023-05-06T16:26:38.522Z,21.60
2023-05-06T16:29:06.229Z,26.10
2023-05-06T16:31:33.854Z,25.20
2023-05-06T16:34:01.440Z,28.60
2023-05-06T16:36:28.988Z,26.70
2023-05-06T16:38:56.495Z,20.30
2023-05-06T16:41:24.141Z,24.70
2023-05-06T16:43:51.662Z,20.20
2023-05-06T16:46:19.664Z,27.40
2023-05-06T16:48:48.155Z,22.40
2023-05-06T16:51:15.814Z,22.10
2023-05-06T16:53:43.371Z,19.80
2023-05-06T16:56:10.988Z,22.10
2023-05-06T16:58:38.593Z,19.50
2023-05-06T17:01:06.486Z,19.40
2023-05-06T17:03:34.733Z,22.70
2023-05-06T17:06:02.386Z,24.50
2023-05-06T17:11:01.435Z,21.20
2023-05-06T17:13:29.649Z,21.40
2023-05-06T17:15:57.166Z,18.70
2023-05-06T17:18:24.692Z,38.60
2023-05-06T17:20:56.491Z,21.70
2023-05-06T17:23:25.047Z,21.30
2023-05-06T17:25:52.598Z,19.70
2023-05-06T17:28:20.152Z,17.30
2023-05-06T17:30:47.806Z,17.90
2023-05-06T17:33:15.433Z,18.30
2023-05-06T17:35:43.020Z,20.60
2023-05-06T17:38:11.815Z,20.40
2023-05-06T17:40:39.480Z,24.40
2023-05-06T17:43:07.020Z,26.00
2023-05-06T17:45:34.593Z,19.60
2023-05-06T17:48:02.206Z,19.30
2023-05-06T17:50:29.967Z,26.50
2023-05-06T17:52:57.527Z,20.40
2023-05-06T17:55:25.171Z,23.20
2023-05-06T17:57:52.820Z,26.70
2023-05-06T18:00:20.809Z,26.70
2023-05-06T18:02:48.524Z,31.70
2023-05-06T18:05:16.995Z,26.80
2023-05-06T18:07:44.585Z,23.80
2023-05-06T18:10:12.161Z,28.40
2023-05-06T18:12:39.910Z,28.30
2023-05-06T18:15:08.241Z,23.40
2023-05-06T18:17:36.306Z,26.00
2023-05-06T18:20:04.519Z,27.20
2023-05-06T18:22:32.342Z,24.60
2023-05-06T18:24:59.915Z,21.00
2023-05-06T18:27:27.466Z,25.60
2023-05-06T18:29:55.125Z,27.90
2023-05-06T18:32:22.695Z,24.80
2023-05-06T18:34:50.288Z,22.50
2023-05-06T18:37:17.965Z,26.50
2023-05-06T18:39:45.722Z,34.90
2023-05-06T18:42:13.344Z,32.00
2023-05-06T18:44:42.665Z,30.60
2023-05-06T18:47:10.266Z,27.40
2023-05-06T18:49:37.949Z,31.70
2023-05-06T18:52:05.533Z,20.70
2023-05-06T18:54:33.147Z,30.90
2023-05-06T18:57:00.986Z,23.70
2023-05-06T18:59:28.613Z,28.40
2023-05-06T19:01:56.179Z,29.40
2023-05-06T19:04:24.822Z,19.80
2023-05-06T19:06:52.442Z,25.10
2023-05-06T19:09:20.104Z,20.20
2023-05-06T19:11:47.665Z,17.70
2023-05-06T19:14:15.329Z,18.30
2023-05-06T19:16:42.955Z,14.40
2023-05-06T19:19:10.565Z,12.90
2023-05-06T19:21:38.124Z,14.60
2023-05-06T19:24:07.125Z,14.60
2023-05-06T19:26:36.248Z,15.90
2023-05-06T19:29:03.842Z,13.30
2023-05-06T19:31:31.618Z,15.60
2023-05-06T19:33:59.308Z,14.30
2023-05-06T19:36:26.940Z,17.60
2023-05-06T19:38:54.485Z,14.80
2023-05-06T19:41:24.375Z,21.90
2023-05-06T19:43:52.057Z,13.70
2023-05-06T19:46:19.900Z,20.00
2023-05-06T19:48:47.635Z,17.90
2023-05-06T19:51:15.210Z,19.00
2023-05-06T19:53:42.884Z,26.20
2023-05-06T19:56:12.393Z,23.10
2023-05-06T19:58:40.526Z,19.80
2023-05-06T20:01:09.009Z,25.20
2023-05-06T20:03:37.055Z,20.40
2023-05-06T20:06:04.857Z,18.60
2023-05-06T20:08:32.411Z,22.80
2023-05-06T20:10:59.984Z,22.10
2023-05-06T20:13:27.694Z,17.20
2023-05-06T20:15:55.360Z,20.80
2023-05-06T20:18:23.094Z,23.00
2023-05-06T20:20:50.717Z,23.30
2023-05-06T20:23:18.457Z,28.40
2023-05-06T20:25:45.990Z,26.50
2023-05-06T20:28:13.575Z,23.00
2023-05-06T20:30:41.248Z,24.00
2023-05-06T20:33:09.007Z,21.30
2023-05-06T20:35:36.776Z,23.60
2023-05-06T20:38:04.446Z,26.80
2023-05-06T20:40:34.029Z,25.60
2023-05-06T20:43:01.609Z,25.90
2023-05-06T20:45:29.227Z,30.50
2023-05-06T20:47:57.113Z,32.00
2023-05-06T20:50:24.725Z,26.90
2023-05-06T20:52:52.259Z,31.10
2023-05-06T20:55:20.118Z,37.20
2023-05-06T20:57:47.653Z,21.30
2023-05-06T21:00:15.321Z,29.10
2023-05-06T21:02:43.006Z,33.40
2023-05-06T21:05:11.243Z,26.70
2023-05-06T21:07:39.123Z,38.00
2023-05-06T21:10:07.001Z,28.30
2023-05-06T21:12:34.583Z,34.60
2023-05-06T21:15:02.458Z,25.30
2023-05-06T21:17:30.089Z,35.20
2023-05-06T21:19:57.636Z,25.20
2023-05-06T21:22:25.656Z,31.50
2023-05-06T21:24:53.273Z,25.40
2023-05-06T21:27:20.971Z,30.20
2023-05-06T21:29:48.602Z,35.90
2023-05-06T21:32:16.190Z,23.50
2023-05-06T21:34:43.763Z,21.80
2023-05-06T21:37:11.372Z,31.70
2023-05-06T21:39:38.999Z,22.30
2023-05-06T21:42:06.540Z,24.80
2023-05-06T21:44:34.114Z,23.60
2023-05-06T21:47:01.770Z,17.30
2023-05-06T21:49:29.470Z,33.50
2023-05-06T21:51:57.051Z,28.20
2023-05-06T21:54:24.741Z,29.20
2023-05-06T21:56:52.330Z,24.10
2023-05-06T21:59:20.032Z,24.00
2023-05-06T22:01:47.635Z,24.60
2023-05-06T22:04:15.786Z,28.80
2023-05-06T22:06:43.334Z,26.00
2023-05-06T22:09:10.873Z,28.30
2023-05-06T22:11:38.642Z,29.10
2023-05-06T22:14:06.851Z,29.00
2023-05-06T22:16:35.237Z,31.20
2023-05-06T22:19:03.505Z,29.20
2023-05-06T22:21:31.050Z,21.50
2023-05-06T22:23:58.681Z,20.90
2023-05-06T22:26:26.556Z,21.80
2023-05-06T22:28:57.100Z,25.50
2023-05-06T22:31:25.184Z,23.10
2023-05-06T22:33:54.939Z,20.80
2023-05-06T22:36:22.536Z,17.30
2023-05-06T22:38:50.122Z,19.40
2023-05-06T22:41:17.698Z,16.60
2023-05-06T22:43:45.502Z,14.10
2023-05-06T22:46:13.794Z,14.20
2023-05-06T22:48:41.343Z,14.60
2023-05-06T22:51:08.905Z,13.30
2023-05-06T22:53:36.752Z,13.60
2023-05-06T22:56:04.526Z,11.90
2023-05-06T22:58:32.137Z,11.90
2023-05-06T23:01:00.147Z,12.20
2023-05-06T23:03:27.897Z,12.30
2023-05-06T23:05:55.634Z,13.00
2023-05-06T23:08:23.186Z,14.40
2023-05-06T23:10:50.732Z,12.50
2023-05-06T23:13:18.329Z,11.40
2023-05-06T23:15:45.888Z,10.50
2023-05-06T23:18:13.468Z,12.30
2023-05-06T23:20:40.986Z,10.90
2023-05-06T23:23:08.498Z,11.70
2023-05-06T23:25:36.439Z,11.80
2023-05-06T23:28:04.127Z,10.40
2023-05-06T23:30:31.682Z,12.50
2023-05-06T23:32:59.260Z,13.10
2023-05-06T23:35:26.821Z,9.60
2023-05-06T23:37:54.380Z,15.80
2023-05-06T23:40:22.084Z,12.50
2023-05-06T23:42:49.658Z,10.20
2023-05-06T23:45:17.279Z,13.30
2023-05-06T23:47:44.868Z,12.70
2023-05-06T23:50:12.908Z,13.70
2023-05-06T23:52:40.588Z,12.80
2023-05-06T23:55:08.543Z,13.60
2023-05-06T23:57:36.411Z,13.20
